Time;durP1;ratioP1;P1;durP2;ratioP2;P2;SDS_P1;SDS_P2;PMS_P1;PMS_P2;Temp;Humidity;BMP_temperature;BMP_pressure;BME280_temperature;BME280_humidity;BME280_pressure;Samples;Min_cycle;Max_cycle;Signal;HPM_P1;HPM_P2
2021/12/30 04:23:18;;;;;;;14.52;5.70;;;12.10;99.90;;;;;;5071607;28;20063;-88
2021/12/30 04:26:10;;;;;;;10.82;4.88;;;12.10;99.90;;;;;;5015713;28;20072;-88
2021/12/30 04:28:36;;;;;;;17.30;5.07;;;12.10;99.90;;;;;;5059678;28;20476;-86
2021/12/30 04:31:02;;;;;;;12.82;4.55;;;10.90;99.90;;;;;;5061033;28;20020;-88
2021/12/30 04:33:28;;;;;;;10.30;4.38;;;11.80;99.90;;;;;;5057863;28;20021;-88
2021/12/30 04:35:56;;;;;;;7.50;3.47;;;14.40;99.90;;;;;;5057280;28;20069;-88
2021/12/30 04:38:27;;;;;;;5.50;3.42;;;13.10;99.90;;;;;;5077201;28;20021;-88
2021/12/30 04:40:54;;;;;;;7.28;2.60;;;12.10;99.90;;;;;;5058974;28;20120;-86
2021/12/30 04:43:20;;;;;;;6.60;2.75;;;12.00;99.90;;;;;;5055715;28;20021;-88
2021/12/30 04:45:48;;;;;;;7.55;2.78;;;13.10;99.90;;;;;;5056468;28;20021;-87
2021/12/30 04:48:16;;;;;;;5.55;2.45;;;12.00;99.90;;;;;;5074443;28;20032;-87
2021/12/30 04:50:42;;;;;;;6.18;3.10;;;12.10;99.90;;;;;;5056775;28;20048;-86
2021/12/30 04:53:08;;;;;;;6.10;3.15;;;13.50;99.90;;;;;;5075767;28;20021;-85
2021/12/30 04:56:08;;;;;;;7.90;2.90;;;11.50;99.90;;;;;;5074422;28;20059;-86
2021/12/30 04:58:34;;;;;;;9.25;3.40;;;12.10;99.90;;;;;;5056206;28;20016;-86
2021/12/30 05:01:00;;;;;;;6.80;2.80;;;14.50;99.90;;;;;;5056131;28;20111;-86
2021/12/30 05:03:28;;;;;;;10.55;4.45;;;11.80;99.90;;;;;;5074552;28;20020;-86
2021/12/30 05:05:55;;;;;;;8.50;3.70;;;12.00;99.90;;;;;;5055877;28;20538;-86
2021/12/30 05:08:24;;;;;;;11.43;4.97;;;11.80;99.90;;;;;;5074195;28;20021;-86
2021/12/30 05:10:51;;;;;;;10.52;4.63;;;13.60;99.90;;;;;;5073885;28;20024;-87
2021/12/30 05:13:17;;;;;;;9.40;3.95;;;11.30;99.90;;;;;;5074044;28;20536;-87
2021/12/30 05:15:44;;;;;;;13.80;5.10;;;14.20;99.90;;;;;;5056567;28;20511;-88
2021/12/30 05:18:12;;;;;;;12.20;5.15;;;13.30;99.90;;;;;;5074323;28;20016;-86
2021/12/30 05:20:38;;;;;;;12.85;5.55;;;10.30;99.90;;;;;;5055583;28;20108;-87
2021/12/30 05:23:04;;;;;;;19.50;6.72;;;12.10;99.90;;;;;;5055717;28;20132;-85
2021/12/30 05:25:31;;;;;;;19.35;5.78;;;11.20;99.90;;;;;;5055960;28;20039;-87
2021/12/30 05:27:57;;;;;;;20.08;6.45;;;11.80;99.90;;;;;;5056152;28;20031;-85
2021/12/30 05:30:23;;;;;;;16.38;5.13;;;13.80;99.90;;;;;;5058773;28;20033;-85
2021/12/30 05:32:54;;;;;;;25.23;6.63;;;11.90;99.90;;;;;;5062142;28;20039;-85
2021/12/30 05:35:20;;;;;;;21.00;6.47;;;11.90;99.90;;;;;;5062977;28;20017;-85
2021/12/30 05:37:46;;;;;;;18.98;5.93;;;10.50;99.90;;;;;;5061351;28;20065;-84
2021/12/30 05:40:16;;;;;;;14.55;4.63;;;12.60;99.90;;;;;;5060837;28;20385;-88
2021/12/30 05:42:43;;;;;;;14.52;4.88;;;11.90;99.90;;;;;;5060817;28;20098;-85
2021/12/30 05:45:10;;;;;;;18.30;5.82;;;11.90;99.90;;;;;;5059931;28;20020;-85
2021/12/30 05:47:36;;;;;;;20.80;6.72;;;11.80;99.90;;;;;;5060165;28;20025;-86
2021/12/30 05:50:06;;;;;;;15.55;5.03;;;11.90;99.90;;;;;;5060349;28;20051;-86
2021/12/30 05:52:32;;;;;;;18.05;6.22;;;11.90;99.90;;;;;;5060553;28;20465;-86
2021/12/30 05:54:58;;;;;;;20.45;6.03;;;11.90;99.90;;;;;;5060723;28;20155;-86
2021/12/30 05:57:24;;;;;;;12.98;5.05;;;11.80;99.90;;;;;;5079451;28;20444;-84
2021/12/30 05:59:52;;;;;;;18.55;5.38;;;14.10;99.90;;;;;;5061304;28;20048;-86
2021/12/30 06:02:21;;;;;;;14.15;4.05;;;11.90;99.90;;;;;;5060341;28;20017;-86
2021/12/30 06:04:48;;;;;;;13.35;3.63;;;14.60;99.90;;;;;;5057663;28;20048;-85
2021/12/30 06:07:14;;;;;;;12.13;4.40;;;11.80;99.90;;;;;;5059656;28;20020;-86
2021/12/30 06:09:41;;;;;;;8.80;2.33;;;14.50;99.90;;;;;;5078696;28;20025;-85
2021/12/30 06:12:08;;;;;;;8.50;2.45;;;10.20;99.90;;;;;;5059982;28;20040;-87
2021/12/30 06:14:33;;;;;;;10.55;2.13;;;14.60;99.90;;;;;;5060051;28;20457;-86
2021/12/30 06:16:59;;;;;;;8.73;2.05;;;12.30;99.90;;;;;;5060544;28;20066;-86
2021/12/30 06:19:33;;;;;;;6.60;1.45;;;13.70;99.90;;;;;;5060708;28;20040;-86
2021/12/30 06:22:09;;;;;;;;;;;;;;;;;;;;;
2021/12/30 06:24:38;;;;;;;9.90;2.30;;;11.70;99.90;;;;;;5078722;28;20058;-86
2021/12/30 06:27:04;;;;;;;7.53;2.08;;;12.20;99.90;;;;;;5060299;28;20036;-86
2021/12/30 06:29:29;;;;;;;9.10;3.30;;;12.20;99.90;;;;;;5078848;28;20111;-86
2021/12/30 06:31:55;;;;;;;7.07;2.83;;;11.40;99.90;;;;;;5062466;28;20016;-87
2021/12/30 06:34:20;;;;;;;6.38;2.33;;;11.40;99.90;;;;;;5060445;28;20112;-86
2021/12/30 06:36:46;;;;;;;7.82;2.38;;;12.10;99.90;;;;;;5059811;28;20362;-86
2021/12/30 06:39:12;;;;;;;9.88;3.15;;;12.10;99.90;;;;;;5059364;28;20029;-87
2021/12/30 06:41:38;;;;;;;7.80;1.60;;;12.10;99.90;;;;;;5060577;28;20028;-86
2021/12/30 06:44:04;;;;;;;6.30;2.10;;;12.30;99.90;;;;;;5059958;28;20028;-85
2021/12/30 06:46:29;;;;;;;7.25;1.60;;;12.30;99.90;;;;;;5059884;28;20101;-87
2021/12/30 06:48:55;;;;;;;5.75;0.88;;;12.00;99.90;;;;;;5059287;28;20477;-86
2021/12/30 06:51:23;;;;;;;3.40;0.98;;;14.00;99.90;;;;;;5061300;28;20020;-86
2021/12/30 06:53:54;;;;;;;4.97;0.65;;;13.40;99.90;;;;;;5060923;28;20024;-85
2021/12/30 06:56:21;;;;;;;4.03;0.90;;;12.30;99.90;;;;;;5059454;28;20116;-85
2021/12/30 06:58:47;;;;;;;4.97;1.13;;;14.30;99.90;;;;;;5060186;28;20070;-85
2021/12/30 07:01:12;;;;;;;4.70;0.73;;;15.10;99.90;;;;;;5059923;28;20028;-86
2021/12/30 07:03:39;;;;;;;1.25;0.52;;;14.00;99.90;;;;;;5058997;28;20023;-86
2021/12/30 07:06:04;;;;;;;1.10;0.38;;;15.40;99.90;;;;;;5059185;28;20031;-85
2021/12/30 07:08:30;;;;;;;1.85;0.55;;;14.30;99.90;;;;;;5059083;28;20115;-86
2021/12/30 07:10:59;;;;;;;0.82;0.28;;;12.50;99.90;;;;;;5059197;28;20025;-87
2021/12/30 07:13:24;;;;;;;4.68;0.80;;;14.50;99.90;;;;;;5059884;28;20025;-87
2021/12/30 07:15:50;;;;;;;3.50;0.35;;;12.40;99.90;;;;;;5061216;28;20039;-87
2021/12/30 07:18:16;;;;;;;2.97;0.40;;;12.30;99.90;;;;;;5060744;28;20116;-86
2021/12/30 07:20:41;;;;;;;4.28;0.50;;;14.00;99.90;;;;;;5059654;28;20032;-86
2021/12/30 07:23:07;;;;;;;3.08;0.55;;;12.40;99.90;;;;;;5080594;28;20482;-87
2021/12/30 07:25:33;;;;;;;2.72;1.02;;;12.30;99.90;;;;;;5059753;28;20024;-88
2021/12/30 07:28:01;;;;;;;4.18;0.85;;;12.50;99.90;;;;;;5060820;28;20024;-88
2021/12/30 07:30:27;;;;;;;3.95;0.75;;;9.40;99.90;;;;;;5057472;28;20036;-88
2021/12/30 07:32:53;;;;;;;10.63;0.52;;;14.90;99.90;;;;;;5078595;28;20016;-87
2021/12/30 07:35:20;;;;;;;2.40;0.90;;;14.60;99.90;;;;;;5060998;28;20509;-86
2021/12/30 07:37:47;;;;;;;2.13;0.60;;;15.20;99.90;;;;;;5060385;28;20020;-88
2021/12/30 07:40:16;;;;;;;1.63;0.50;;;13.20;99.90;;;;;;5061159;28;20017;-88
2021/12/30 07:42:43;;;;;;;5.60;1.02;;;12.30;99.90;;;;;;5060989;28;20040;-88
2021/12/30 07:45:10;;;;;;;6.32;1.48;;;12.60;99.90;;;;;;5062931;28;20027;-89
2021/12/30 07:48:23;;;;;;;11.80;2.78;;;12.50;99.90;;;;;;5079536;28;20024;-89
2021/12/30 07:50:50;;;;;;;6.70;1.75;;;11.60;99.90;;;;;;5079072;22;20037;-82
2021/12/30 07:53:15;;;;;;;7.47;2.00;;;12.40;99.90;;;;;;5000437;28;20486;-78
2021/12/30 07:55:41;;;;;;;7.45;2.60;;;12.40;99.90;;;;;;5015764;28;20156;-78
2021/12/30 07:58:07;;;;;;;12.95;2.90;;;12.40;99.90;;;;;;5014319;28;20032;-78
2021/12/30 08:00:32;;;;;;;13.02;2.75;;;12.40;99.90;;;;;;4997030;28;20057;-79
2021/12/30 08:02:58;;;;;;;9.77;2.25;;;12.40;99.90;;;;;;4997693;28;20080;-77
2021/12/30 08:05:24;;;;;;;8.52;2.25;;;12.40;99.90;;;;;;4997856;28;20032;-78
2021/12/30 08:07:49;;;;;;;10.35;2.08;;;12.40;99.90;;;;;;5015493;28;20101;-77
2021/12/30 08:10:18;;;;;;;12.43;1.90;;;12.60;99.90;;;;;;5014840;28;20053;-78
2021/12/30 08:12:46;;;;;;;7.32;2.08;;;12.50;99.90;;;;;;4997448;28;20026;-78
2021/12/30 08:15:12;;;;;;;5.65;1.88;;;12.40;99.90;;;;;;4997278;28;20475;-77
2021/12/30 08:17:39;;;;;;;6.85;1.80;;;12.50;99.90;;;;;;5014917;28;20101;-76
2021/12/30 08:20:07;;;;;;;11.07;2.03;;;13.70;99.90;;;;;;4997507;28;20029;-77
2021/12/30 08:22:33;;;;;;;4.78;1.38;;;12.50;99.90;;;;;;4997434;28;20030;-77
2021/12/30 08:24:59;;;;;;;8.93;2.33;;;12.50;99.90;;;;;;4997383;28;20052;-77
2021/12/30 08:27:25;;;;;;;7.68;1.98;;;12.50;99.90;;;;;;4997385;28;20030;-78
2021/12/30 08:29:51;;;;;;;8.63;1.67;;;12.50;99.90;;;;;;5014740;28;20113;-78
2021/12/30 08:32:16;;;;;;;17.05;2.17;;;12.70;99.90;;;;;;4997443;28;20025;-78
2021/12/30 08:34:44;;;;;;;7.90;1.90;;;12.50;99.90;;;;;;4996911;28;20018;-79
2021/12/30 08:37:11;;;;;;;9.82;1.83;;;12.50;99.90;;;;;;4997832;28;20501;-79
2021/12/30 08:39:37;;;;;;;13.63;2.17;;;12.50;99.90;;;;;;4997896;28;20398;-78
2021/12/30 08:42:05;;;;;;;13.55;2.42;;;12.50;99.90;;;;;;5014902;28;20385;-80
2021/12/30 08:44:31;;;;;;;11.60;1.70;;;12.60;99.90;;;;;;4997074;28;20025;-77
2021/12/30 08:46:56;;;;;;;9.20;2.13;;;12.50;99.90;;;;;;5015302;28;20029;-77
2021/12/30 08:49:22;;;;;;;9.93;1.55;;;12.50;99.90;;;;;;4996746;28;20026;-76
2021/12/30 08:51:48;;;;;;;12.38;1.92;;;12.50;99.90;;;;;;4996958;28;20490;-78
2021/12/30 08:54:13;;;;;;;18.15;2.20;;;12.60;99.90;;;;;;4997035;28;20417;-78
2021/12/30 08:56:39;;;;;;;14.18;2.33;;;12.50;99.90;;;;;;4997908;28;20043;-78
2021/12/30 08:59:08;;;;;;;19.60;1.85;;;12.60;99.90;;;;;;4997446;28;20058;-79
2021/12/30 09:01:34;;;;;;;17.67;1.50;;;12.60;99.90;;;;;;4997611;28;20057;-80
2021/12/30 09:03:59;;;;;;;11.57;1.77;;;12.60;99.90;;;;;;4997262;28;20080;-78
2021/12/30 09:06:25;;;;;;;17.63;1.80;;;12.50;99.90;;;;;;4996931;28;20026;-78
2021/12/30 09:08:50;;;;;;;15.80;1.52;;;12.60;99.90;;;;;;4996701;28;20429;-78
2021/12/30 09:11:16;;;;;;;14.77;1.55;;;12.60;99.90;;;;;;5014342;28;20052;-78
2021/12/30 09:13:41;;;;;;;12.55;1.50;;;12.60;99.90;;;;;;4996713;28;20386;-79
2021/12/30 09:16:07;;;;;;;9.35;0.88;;;12.70;99.90;;;;;;5014942;28;20482;-78
2021/12/30 09:18:33;;;;;;;11.45;1.35;;;12.70;99.90;;;;;;4996410;28;20034;-78
2021/12/30 09:20:59;;;;;;;16.27;2.17;;;12.70;99.90;;;;;;5013963;28;20038;-78
2021/12/30 09:23:25;;;;;;;13.40;1.60;;;12.70;99.90;;;;;;4996252;28;20112;-78
2021/12/30 09:25:52;;;;;;;16.58;1.38;;;12.80;99.90;;;;;;5014444;28;20044;-80
2021/12/30 09:28:18;;;;;;;10.65;1.83;;;12.80;99.90;;;;;;5014827;28;20437;-76
2021/12/30 09:30:45;;;;;;;10.93;1.02;;;12.80;99.90;;;;;;5013506;28;20025;-76
2021/12/30 09:33:15;;;;;;;15.77;1.58;;;12.80;99.90;;;;;;5013527;28;20014;-76
2021/12/30 09:35:42;;;;;;;10.20;1.20;;;12.80;99.90;;;;;;4996193;28;20036;-76
2021/12/30 09:38:08;;;;;;;10.10;1.13;;;12.90;99.90;;;;;;4996189;28;20022;-76
2021/12/30 09:40:33;;;;;;;9.73;0.85;;;13.00;99.90;;;;;;5013672;28;20109;-76
2021/12/30 09:43:04;;;;;;;7.38;1.33;;;13.00;99.90;;;;;;5013967;28;20018;-76
2021/12/30 09:45:33;;;;;;;15.18;2.20;;;13.00;99.90;;;;;;5013928;28;20517;-76
2021/12/30 09:48:03;;;;;;;14.80;1.52;;;13.00;99.90;;;;;;4995906;28;20037;-76
2021/12/30 09:50:32;;;;;;;13.02;0.90;;;13.00;99.90;;;;;;5013541;28;20402;-76
2021/12/30 09:53:01;;;;;;;13.30;1.13;;;13.10;99.90;;;;;;4995841;28;20025;-76
2021/12/30 09:55:26;;;;;;;17.98;2.40;;;13.10;99.90;;;;;;5013618;28;20029;-76
2021/12/30 09:57:53;;;;;;;16.38;1.40;;;13.10;99.90;;;;;;5013977;28;20463;-76
2021/12/30 10:00:19;;;;;;;11.68;1.35;;;13.20;99.90;;;;;;5013781;28;20029;-76
2021/12/30 10:02:45;;;;;;;8.38;1.17;;;13.20;99.90;;;;;;5013743;28;20510;-76
2021/12/30 10:05:15;;;;;;;14.27;1.50;;;13.20;99.90;;;;;;5013741;28;20030;-75
2021/12/30 10:07:41;;;;;;;13.43;1.58;;;13.20;99.90;;;;;;5013457;28;20033;-75
2021/12/30 10:10:29;;;;;;;10.25;0.88;;;13.20;99.90;;;;;;5013412;28;20026;-77
2021/12/30 10:12:56;;;;;;;14.23;1.38;;;13.30;99.90;;;;;;4995760;28;20127;-75
2021/12/30 10:15:25;;;;;;;6.78;0.85;;;13.30;99.90;;;;;;4995639;28;20022;-76
2021/12/30 10:18:08;;;;;;;14.02;1.08;;;13.30;99.90;;;;;;5013049;28;20030;-75
2021/12/30 10:20:37;;;;;;;7.07;1.30;;;13.20;99.90;;;;;;5012864;28;20034;-76
2021/12/30 10:23:14;;;;;;;11.90;1.15;;;13.30;99.90;;;;;;4996225;28;20026;-76
2021/12/30 10:25:43;;;;;;;8.20;1.27;;;13.30;99.90;;;;;;5017123;28;20033;-76
2021/12/30 10:28:20;;;;;;;;;;;13.20;99.90;;;;;;4999305;28;20030;-77
2021/12/30 10:30:47;;;;;;;11.43;0.93;;;13.20;99.90;;;;;;5016926;28;19909;-77
2021/12/30 10:33:16;;;;;;;15.73;1.92;;;13.20;99.90;;;;;;4999193;28;20018;-77
2021/12/30 10:35:41;;;;;;;;;;;13.10;99.90;;;;;;5017020;28;20427;-77
2021/12/30 10:38:11;;;;;;;8.80;0.98;;;13.10;99.90;;;;;;4999134;28;19913;-77
2021/12/30 10:40:41;;;;;;;10.32;1.30;;;13.10;99.90;;;;;;5016646;28;20084;-77
2021/12/30 10:43:37;;;;;;;12.63;0.98;;;13.10;99.90;;;;;;5017038;28;20026;-77
2021/12/30 10:46:17;;;;;;;7.57;0.90;;;13.20;99.90;;;;;;5017297;28;20026;-78
2021/12/30 10:49:04;;;;;;;10.80;0.75;;;13.20;99.90;;;;;;5001398;28;20038;-77
2021/12/30 10:51:43;;;;;;;13.70;0.80;;;13.20;99.90;;;;;;4981653;28;20026;-77
2021/12/30 10:54:34;;;;;;;11.10;0.93;;;13.30;99.90;;;;;;5013540;28;20083;-77
2021/12/30 10:57:06;;;;;;;7.55;0.70;;;13.30;99.90;;;;;;4987956;28;20490;-77
2021/12/30 10:59:38;;;;;;;14.00;2.42;;;13.30;99.90;;;;;;4998264;28;20037;-77
2021/12/30 11:02:12;;;;;;;7.63;0.40;;;13.30;99.90;;;;;;5016023;28;20026;-76
2021/12/30 11:04:40;;;;;;;10.73;0.82;;;13.20;99.90;;;;;;4997971;28;20053;-76
2021/12/30 11:07:07;;;;;;;6.37;0.30;;;13.30;99.90;;;;;;4997946;28;20063;-76
2021/12/30 11:09:34;;;;;;;8.15;1.30;;;13.20;99.90;;;;;;4997908;28;20288;-75
2021/12/30 11:12:03;;;;;;;10.63;1.25;;;13.20;99.90;;;;;;5015462;28;20029;-74
2021/12/30 11:14:32;;;;;;;12.10;1.45;;;13.20;99.90;;;;;;5015264;28;20058;-75
2021/12/30 11:17:14;;;;;;;7.53;1.85;;;13.10;99.90;;;;;;5015428;28;20367;-74
2021/12/30 11:19:44;;;;;;;6.07;0.75;;;13.10;99.90;;;;;;4997734;28;20013;-74
2021/12/30 11:22:15;;;;;;;7.55;1.27;;;13.10;99.90;;;;;;4998068;28;20033;-75
2021/12/30 11:24:45;;;;;;;9.23;1.38;;;13.20;99.90;;;;;;4995182;28;20120;-75
2021/12/30 11:27:13;;;;;;;8.23;1.80;;;13.10;99.90;;;;;;5015421;28;20482;-74
2021/12/30 11:29:43;;;;;;;7.90;1.17;;;13.10;99.90;;;;;;4997484;28;20385;-75
2021/12/30 11:32:09;;;;;;;16.48;2.35;;;13.00;99.90;;;;;;5015055;28;20143;-75
2021/12/30 11:34:36;;;;;;;9.18;2.30;;;13.00;99.90;;;;;;4996718;28;20022;-75
2021/12/30 11:37:03;;;;;;;14.85;1.30;;;13.00;99.90;;;;;;5015160;28;20037;-75
2021/12/30 11:39:29;;;;;;;17.25;2.40;;;13.00;99.90;;;;;;4997605;28;20056;-75
2021/12/30 11:42:15;;;;;;;8.38;1.65;;;12.90;99.90;;;;;;5015334;28;20037;-75
2021/12/30 11:44:54;;;;;;;9.00;1.17;;;12.80;99.90;;;;;;5014923;28;20034;-75
2021/12/30 11:47:32;;;;;;;11.20;1.98;;;12.80;99.90;;;;;;5015580;28;20029;-78
2021/12/30 11:50:02;;;;;;;7.85;1.40;;;12.90;99.90;;;;;;5002343;28;20026;-79
2021/12/30 11:52:58;;;;;;;9.48;1.60;;;12.90;99.90;;;;;;5000055;28;20120;-80
2021/12/30 11:55:59;;;;;;;7.57;0.90;;;12.80;99.90;;;;;;5017547;28;20529;-79
2021/12/30 11:58:28;;;;;;;12.13;0.60;;;12.90;99.90;;;;;;4988814;28;20037;-73
2021/12/30 12:01:02;;;;;;;9.00;0.75;;;12.80;99.90;;;;;;5014751;28;20036;-73
2021/12/30 12:03:47;;;;;;;10.63;2.05;;;12.80;99.90;;;;;;5015566;28;20478;-73
2021/12/30 12:06:25;;;;;;;7.13;1.23;;;12.80;99.90;;;;;;5014801;28;20014;-73
2021/12/30 12:08:59;;;;;;;11.65;1.70;;;12.90;99.90;;;;;;5015021;28;20121;-73
2021/12/30 12:11:27;;;;;;;9.55;1.40;;;12.90;99.90;;;;;;5014812;28;20034;-73
2021/12/30 12:13:55;;;;;;;13.90;2.00;;;12.90;99.90;;;;;;4997177;28;20026;-73
2021/12/30 12:16:55;;;;;;;11.20;1.23;;;12.90;99.90;;;;;;5014496;28;20037;-73
2021/12/30 12:19:32;;;;;;;6.50;0.55;;;12.90;99.90;;;;;;4989638;28;20066;-73
2021/12/30 12:21:57;;;;;;;9.27;1.33;;;12.90;99.90;;;;;;5015286;28;20033;-73
2021/12/30 12:24:32;;;;;;;11.55;0.80;;;13.00;99.90;;;;;;4997045;28;20030;-73
2021/12/30 12:27:24;;;;;;;14.27;1.15;;;12.90;99.90;;;;;;4997061;28;20117;-73
2021/12/30 12:29:55;;;;;;;12.98;1.08;;;13.00;99.90;;;;;;5009671;28;20049;-73
2021/12/30 12:32:37;;;;;;;11.43;1.35;;;13.10;99.90;;;;;;5014295;28;20024;-73
2021/12/30 12:35:27;;;;;;;5.72;0.55;;;13.00;99.90;;;;;;5014797;28;20026;-73
2021/12/30 12:37:59;;;;;;;7.40;0.77;;;13.00;99.90;;;;;;5004457;28;20099;-73
2021/12/30 12:40:26;;;;;;;6.82;1.30;;;13.10;99.90;;;;;;5014264;28;20105;-73
2021/12/30 12:42:52;;;;;;;8.52;1.08;;;13.00;99.90;;;;;;5014291;28;20172;-73
2021/12/30 12:45:23;;;;;;;5.40;0.80;;;13.10;99.90;;;;;;5014333;28;20064;-73
2021/12/30 12:48:28;;;;;;;6.03;0.88;;;13.10;99.90;;;;;;5013854;28;20569;-73
2021/12/30 12:50:55;;;;;;;7.18;0.80;;;13.10;99.90;;;;;;5014026;28;20032;-73
2021/12/30 12:53:24;;;;;;;4.25;0.45;;;13.10;99.90;;;;;;5014086;28;20109;-73
2021/12/30 12:55:51;;;;;;;6.07;0.50;;;13.10;99.90;;;;;;5013846;28;20475;-73
2021/12/30 12:58:26;;;;;;;4.38;0.70;;;13.20;99.90;;;;;;4996284;28;20025;-73
2021/12/30 13:00:54;;;;;;;5.00;0.75;;;13.20;99.90;;;;;;5014009;28;20057;-73
2021/12/30 13:03:20;;;;;;;5.20;0.30;;;13.30;99.90;;;;;;5014002;28;20018;-73
2021/12/30 13:06:02;;;;;;;6.53;0.47;;;13.30;99.90;;;;;;5014245;28;20129;-74
2021/12/30 13:08:29;;;;;;;3.33;0.80;;;13.40;99.90;;;;;;4976949;28;20045;-74
2021/12/30 13:10:54;;;;;;;4.93;0.98;;;13.40;99.90;;;;;;4976845;28;20026;-73
2021/12/30 13:13:28;;;;;;;10.60;1.25;;;13.40;99.90;;;;;;4994365;28;20523;-73
2021/12/30 13:15:54;;;;;;;9.63;0.40;;;13.40;99.90;;;;;;4994322;28;20395;-73
2021/12/30 13:18:20;;;;;;;6.63;1.75;;;13.40;99.90;;;;;;4994203;28;20423;-74
2021/12/30 13:20:48;;;;;;;15.10;2.00;;;13.40;99.90;;;;;;4976885;28;20030;-73
2021/12/30 13:23:25;;;;;;;8.02;0.50;;;13.40;99.90;;;;;;5012616;28;20030;-74
2021/12/30 13:26:03;;;;;;;8.13;1.13;;;13.50;99.90;;;;;;4996235;28;20117;-73
2021/12/30 13:28:29;;;;;;;6.18;0.47;;;13.50;99.90;;;;;;4994325;28;20502;-73
2021/12/30 13:31:08;;;;;;;9.02;1.08;;;13.50;99.90;;;;;;4994312;28;20019;-74
2021/12/30 13:33:34;;;;;;;5.53;0.47;;;13.50;99.90;;;;;;4994605;28;20475;-74
2021/12/30 13:36:15;;;;;;;9.23;0.63;;;13.40;99.90;;;;;;4999497;28;20033;-73
2021/12/30 13:38:40;;;;;;;11.15;0.98;;;13.50;99.90;;;;;;4995824;28;20072;-74
2021/12/30 13:41:13;;;;;;;4.00;0.85;;;13.50;99.90;;;;;;5013796;28;20022;-74
2021/12/30 13:43:39;;;;;;;9.00;1.25;;;13.50;99.90;;;;;;4995874;28;20518;-73
2021/12/30 13:46:05;;;;;;;10.13;0.55;;;13.60;99.90;;;;;;5013315;28;20030;-74
2021/12/30 13:48:37;;;;;;;6.43;0.22;;;13.50;99.90;;;;;;5013650;28;20033;-73
2021/12/30 13:51:25;;;;;;;10.10;0.60;;;13.50;99.90;;;;;;5012999;28;20037;-74
2021/12/30 13:53:52;;;;;;;5.80;0.45;;;13.50;99.90;;;;;;5014084;28;20489;-73
2021/12/30 13:56:24;;;;;;;9.40;0.28;;;13.50;99.90;;;;;;5013003;28;20022;-73
2021/12/30 13:58:51;;;;;;;6.68;1.10;;;13.40;99.90;;;;;;5015834;28;20024;-73
2021/12/30 14:01:21;;;;;;;7.90;1.52;;;13.40;99.90;;;;;;5017405;28;20382;-73
2021/12/30 14:03:49;;;;;;;7.50;0.20;;;13.40;99.90;;;;;;5017641;28;20033;-73
2021/12/30 14:06:21;;;;;;;4.80;1.20;;;13.40;99.90;;;;;;5017149;28;20072;-73
2021/12/30 14:09:03;;;;;;;11.02;1.25;;;13.40;99.90;;;;;;5017143;28;20037;-73
2021/12/30 14:11:41;;;;;;;7.07;0.80;;;13.30;99.90;;;;;;4999336;28;20042;-74
2021/12/30 14:14:17;;;;;;;4.70;0.77;;;13.40;99.90;;;;;;5017032;28;20105;-73
2021/12/30 14:16:47;;;;;;;7.45;0.43;;;13.40;99.90;;;;;;5016986;28;20022;-73
2021/12/30 14:19:14;;;;;;;3.75;0.68;;;13.30;99.90;;;;;;5016827;28;20118;-73
2021/12/30 14:21:46;;;;;;;7.22;0.60;;;13.30;99.90;;;;;;5017014;28;20129;-73
2021/12/30 14:24:20;;;;;;;6.10;0.30;;;13.30;99.90;;;;;;4999119;28;20429;-73
2021/12/30 14:27:47;;;;;;;4.18;0.85;;;13.30;99.90;;;;;;5112191;27;20291;-74
2021/12/30 14:30:16;;;;;;;6.68;0.32;;;13.30;99.90;;;;;;5100715;28;20024;-74
2021/12/30 14:32:41;;;;;;;;;;;13.30;99.90;;;;;;5108038;28;20065;-74
2021/12/30 14:35:09;;;;;;;6.15;0.88;;;13.30;99.90;;;;;;5112036;28;20336;-74
2021/12/30 14:37:39;;;;;;;4.95;0.20;;;13.30;99.90;;;;;;5110023;28;20557;-74
2021/12/30 14:40:06;;;;;;;4.32;0.45;;;13.30;99.90;;;;;;5110627;28;20387;-74
2021/12/30 14:42:33;;;;;;;6.97;0.55;;;13.20;99.90;;;;;;5094049;28;20031;-74
2021/12/30 14:45:04;;;;;;;6.47;0.40;;;13.20;99.90;;;;;;5091690;28;20020;-74
2021/12/30 14:47:48;;;;;;;4.72;1.33;;;13.20;99.90;;;;;;5097606;28;20544;-75
2021/12/30 14:50:19;;;;;;;4.40;0.32;;;13.30;99.90;;;;;;5089338;28;20103;-74
2021/12/30 14:52:48;;;;;;;3.78;0.63;;;13.30;99.90;;;;;;5091112;28;20419;-74
2021/12/30 14:55:19;;;;;;;9.13;0.80;;;13.30;99.90;;;;;;5089525;28;20079;-74
2021/12/30 14:57:46;;;;;;;5.20;0.68;;;13.30;99.90;;;;;;5105456;28;20073;-75
2021/12/30 15:00:15;;;;;;;9.43;1.05;;;13.30;99.90;;;;;;5103942;28;20035;-74
2021/12/30 15:02:41;;;;;;;5.30;0.75;;;13.30;99.90;;;;;;5110176;28;20493;-74
2021/12/30 15:05:07;;;;;;;6.05;0.47;;;13.30;99.90;;;;;;5110933;28;20108;-73
2021/12/30 15:07:33;;;;;;;2.38;0.47;;;13.30;99.90;;;;;;5107048;28;20507;-73
2021/12/30 15:10:03;;;;;;;8.30;1.83;;;13.20;99.90;;;;;;5098804;28;20016;-73
2021/12/30 15:12:30;;;;;;;2.75;0.57;;;13.20;99.90;;;;;;5094698;28;20020;-73
2021/12/30 15:14:58;;;;;;;8.32;1.40;;;13.30;99.90;;;;;;5101241;28;20031;-73
2021/12/30 15:17:24;;;;;;;3.47;0.85;;;13.30;99.90;;;;;;5109278;28;20023;-73
2021/12/30 15:19:50;;;;;;;1.67;0.82;;;13.30;99.90;;;;;;5090297;28;20029;-73
2021/12/30 15:22:15;;;;;;;5.85;0.80;;;13.20;99.90;;;;;;5093713;28;20120;-72
2021/12/30 15:24:41;;;;;;;4.22;0.50;;;13.20;99.90;;;;;;5094337;28;20111;-73
2021/12/30 15:27:09;;;;;;;6.93;0.73;;;13.20;99.90;;;;;;5090630;28;20433;-73
2021/12/30 15:29:35;;;;;;;10.35;1.65;;;13.10;99.90;;;;;;5107949;28;20065;-73
2021/12/30 15:32:01;;;;;;;4.78;0.68;;;13.10;99.90;;;;;;5110375;28;20016;-73
2021/12/30 15:34:29;;;;;;;11.80;1.40;;;13.10;99.90;;;;;;5108653;28;20077;-73
2021/12/30 15:36:55;;;;;;;7.47;0.80;;;13.10;99.90;;;;;;5108156;28;20023;-73
2021/12/30 15:39:21;;;;;;;1.52;0.57;;;13.00;99.90;;;;;;5087433;28;20020;-74
2021/12/30 15:41:47;;;;;;;5.07;1.15;;;13.10;99.90;;;;;;5076728;28;20024;-74
2021/12/30 15:44:12;;;;;;;4.97;1.17;;;13.00;99.90;;;;;;5083777;28;20537;-74
2021/12/30 15:46:38;;;;;;;4.32;1.08;;;13.00;99.90;;;;;;5097139;28;20028;-74
2021/12/30 15:49:06;;;;;;;2.90;1.33;;;13.00;99.90;;;;;;5096534;28;20048;-74
2021/12/30 15:51:36;;;;;;;11.52;1.08;;;13.00;99.90;;;;;;5095324;28;20111;-76
2021/12/30 15:54:06;;;;;;;4.47;0.60;;;13.10;99.90;;;;;;5084628;28;20489;-74
2021/12/30 15:56:33;;;;;;;3.28;0.60;;;13.10;99.90;;;;;;5074918;28;20370;-75
2021/12/30 15:58:59;;;;;;;3.90;0.75;;;13.10;99.90;;;;;;5081620;28;20016;-74
2021/12/30 16:01:25;;;;;;;4.53;0.60;;;13.00;99.90;;;;;;5095071;28;20035;-74
2021/12/30 16:03:51;;;;;;;3.38;0.38;;;13.00;99.90;;;;;;5095125;28;20409;-74
2021/12/30 16:06:17;;;;;;;4.97;0.90;;;13.00;99.90;;;;;;5096387;28;20361;-74
2021/12/30 16:08:43;;;;;;;4.95;0.68;;;13.10;99.90;;;;;;5096170;28;20069;-74
2021/12/30 16:11:10;;;;;;;6.40;0.60;;;13.10;99.90;;;;;;5097185;28;20361;-74
2021/12/30 16:13:37;;;;;;;2.08;0.10;;;13.10;99.90;;;;;;5096183;28;20038;-74
2021/12/30 16:16:05;;;;;;;4.65;0.32;;;13.10;99.90;;;;;;5096118;28;20099;-74
2021/12/30 16:18:35;;;;;;;7.10;0.70;;;13.10;99.90;;;;;;5094868;28;20024;-74
2021/12/30 16:21:02;;;;;;;7.38;1.02;;;13.20;99.90;;;;;;5096441;28;20357;-74
2021/12/30 16:23:31;;;;;;;5.80;0.40;;;13.10;99.90;;;;;;5095926;28;20119;-74
2021/12/30 16:25:58;;;;;;;6.57;0.43;;;13.10;99.90;;;;;;5096017;28;20249;-74
2021/12/30 16:28:24;;;;;;;3.05;0.80;;;13.10;99.90;;;;;;5089402;28;20016;-74
2021/12/30 16:30:50;;;;;;;3.63;1.33;;;13.10;99.90;;;;;;5075983;28;20051;-74
2021/12/30 16:33:16;;;;;;;4.68;0.73;;;13.10;99.90;;;;;;5074250;28;20013;-74
2021/12/30 16:35:43;;;;;;;5.53;0.63;;;13.10;99.90;;;;;;5075490;28;20481;-75
2021/12/30 16:38:08;;;;;;;6.55;0.90;;;13.10;99.90;;;;;;5076115;28;20031;-75
2021/12/30 16:40:39;;;;;;;4.85;1.10;;;13.10;99.90;;;;;;5075386;28;20029;-75
2021/12/30 16:43:06;;;;;;;7.60;0.82;;;13.10;99.90;;;;;;5073932;28;20116;-75
2021/12/30 16:45:35;;;;;;;3.22;1.05;;;13.10;99.90;;;;;;5075343;28;20051;-75
2021/12/30 16:48:00;;;;;;;9.13;1.60;;;13.10;99.90;;;;;;5075522;28;20020;-75
2021/12/30 16:50:26;;;;;;;5.72;1.38;;;13.10;99.90;;;;;;5074050;28;20541;-75
2021/12/30 16:52:52;;;;;;;8.70;1.13;;;13.10;99.90;;;;;;5075274;28;20377;-75
2021/12/30 16:55:18;;;;;;;7.13;1.88;;;13.10;99.90;;;;;;5075183;28;20337;-75
2021/12/30 16:57:44;;;;;;;9.98;1.40;;;13.10;99.90;;;;;;5073884;28;20028;-76
2021/12/30 17:00:15;;;;;;;7.32;1.67;;;13.10;99.90;;;;;;5075151;28;20032;-76
2021/12/30 17:02:42;;;;;;;5.90;1.45;;;13.10;99.90;;;;;;5073691;28;20032;-75
2021/12/30 17:05:10;;;;;;;7.82;1.98;;;13.10;99.90;;;;;;5074952;28;20124;-75
2021/12/30 17:07:35;;;;;;;13.05;2.05;;;13.00;99.90;;;;;;5074601;28;20021;-75
2021/12/30 17:10:02;;;;;;;11.30;2.30;;;13.00;99.90;;;;;;5074642;28;20020;-75
2021/12/30 17:12:28;;;;;;;12.93;2.50;;;13.00;99.90;;;;;;5073464;28;20453;-75
2021/12/30 17:14:54;;;;;;;10.88;3.17;;;12.90;99.90;;;;;;5074791;28;20056;-75
2021/12/30 17:17:19;;;;;;;16.08;2.50;;;12.90;99.90;;;;;;5074573;28;20411;-75
2021/12/30 17:19:45;;;;;;;15.32;2.45;;;13.00;99.90;;;;;;5074361;28;20380;-75